createdAt,value
2022-10-03T00:01:47.456Z,4.30
2022-10-03T00:04:33.144Z,4.77
2022-10-03T00:07:16.699Z,4.47
2022-10-03T00:09:43.643Z,3.90
2022-10-03T00:12:37.077Z,4.57
2022-10-03T00:15:10.680Z,4.03
2022-10-03T00:17:45.187Z,4.57
2022-10-03T00:20:14.984Z,4.03
2022-10-03T00:22:41.869Z,4.33
2022-10-03T00:25:15.128Z,4.53
2022-10-03T00:28:02.303Z,4.60
2022-10-03T00:30:30.438Z,4.50
2022-10-03T00:33:02.915Z,4.23
2022-10-03T00:35:35.907Z,4.87
2022-10-03T00:38:02.843Z,4.80
2022-10-03T00:40:48.208Z,4.73
2022-10-03T00:43:41.935Z,4.33
2022-10-03T00:46:08.821Z,4.80
2022-10-03T00:48:45.000Z,4.30
2022-10-03T00:51:18.117Z,4.63
2022-10-03T00:53:45.063Z,5.20
2022-10-03T00:56:21.855Z,5.60
2022-10-03T00:58:48.963Z,4.40
2022-10-03T01:01:27.951Z,4.57
2022-10-03T01:04:30.430Z,5.07
2022-10-03T01:07:03.018Z,5.50
2022-10-03T01:09:36.666Z,5.93
2022-10-03T01:12:06.264Z,4.80
2022-10-03T01:14:33.082Z,4.63
2022-10-03T01:17:14.626Z,5.30
2022-10-03T01:19:46.912Z,5.80
2022-10-03T01:22:22.796Z,5.17
2022-10-03T01:25:08.544Z,5.20
2022-10-03T01:28:01.386Z,4.50
2022-10-03T01:30:30.120Z,5.23
2022-10-03T01:33:03.424Z,5.10
2022-10-03T01:35:36.044Z,4.70
2022-10-03T01:38:21.817Z,5.83
2022-10-03T01:40:48.655Z,4.47
2022-10-03T01:43:23.563Z,4.10
2022-10-03T01:46:09.271Z,4.40
2022-10-03T01:48:36.165Z,4.17
2022-10-03T01:51:02.951Z,4.00
2022-10-03T01:53:29.761Z,4.20
2022-10-03T01:55:56.595Z,4.80
2022-10-03T01:58:30.351Z,4.37
2022-10-03T02:01:12.356Z,4.53
2022-10-03T02:03:46.187Z,4.87
2022-10-03T02:06:35.584Z,4.07
2022-10-03T02:09:03.619Z,4.70
2022-10-03T02:11:30.350Z,4.27
2022-10-03T02:14:09.522Z,4.90
2022-10-03T02:16:42.231Z,3.90
2022-10-03T02:19:24.250Z,4.53
2022-10-03T02:21:55.481Z,4.93
2022-10-03T02:24:37.460Z,4.37
2022-10-03T02:27:41.696Z,4.20
2022-10-03T02:30:13.894Z,3.83
2022-10-03T02:32:52.649Z,5.00
2022-10-03T02:35:43.497Z,4.10
2022-10-03T02:38:29.460Z,3.27
2022-10-03T02:40:57.215Z,4.27
2022-10-03T02:43:33.321Z,3.60
2022-10-03T02:46:19.012Z,4.47
2022-10-03T02:49:24.377Z,4.43
2022-10-03T02:52:10.706Z,3.60
2022-10-03T02:54:52.478Z,4.13
2022-10-03T02:57:39.670Z,4.27
2022-10-03T03:00:08.679Z,4.00
2022-10-03T03:02:35.519Z,4.37
2022-10-03T03:05:05.508Z,3.60
2022-10-03T03:07:38.555Z,3.90
2022-10-03T03:10:11.449Z,5.10
2022-10-03T03:12:43.023Z,4.20
2022-10-03T03:15:20.681Z,4.27
2022-10-03T03:17:51.675Z,4.40
2022-10-03T03:20:41.418Z,3.77
2022-10-03T03:23:26.768Z,3.60
2022-10-03T03:26:02.701Z,3.60
2022-10-03T03:28:50.575Z,3.80
2022-10-03T03:31:34.542Z,3.30
2022-10-03T03:34:21.874Z,4.33
2022-10-03T03:36:58.548Z,4.07
2022-10-03T03:39:25.312Z,3.83
2022-10-03T03:41:58.739Z,3.50
2022-10-03T03:44:28.943Z,3.37
2022-10-03T03:47:15.663Z,3.53
2022-10-03T03:49:59.339Z,3.70
2022-10-03T03:52:48.987Z,3.47
2022-10-03T03:55:27.854Z,4.17
2022-10-03T03:58:01.024Z,3.93
2022-10-03T04:00:31.553Z,3.83
2022-10-03T04:02:58.324Z,3.77
2022-10-03T04:05:25.283Z,3.43
2022-10-03T04:07:58.263Z,3.97
2022-10-03T04:10:44.034Z,3.00
2022-10-03T04:13:21.521Z,3.50
2022-10-03T04:15:56.796Z,3.70
2022-10-03T04:19:00.436Z,3.93
2022-10-03T04:21:30.351Z,3.47
2022-10-03T04:24:17.487Z,3.73
2022-10-03T04:26:53.276Z,3.93
2022-10-03T04:29:20.304Z,4.00
2022-10-03T04:31:57.363Z,2.90
2022-10-03T04:34:33.105Z,3.43
2022-10-03T04:37:06.250Z,3.23
2022-10-03T04:39:37.106Z,3.60
2022-10-03T04:42:04.263Z,3.23
2022-10-03T04:44:34.114Z,3.37
2022-10-03T04:47:03.755Z,3.50
2022-10-03T04:49:43.686Z,4.27
2022-10-03T04:52:39.788Z,3.93
2022-10-03T04:55:17.430Z,3.33
2022-10-03T04:57:44.441Z,2.97
2022-10-03T05:00:28.509Z,3.10
2022-10-03T05:03:10.921Z,3.27
2022-10-03T05:05:46.900Z,3.10
2022-10-03T05:08:19.682Z,3.67
2022-10-03T05:10:47.260Z,3.57
2022-10-03T05:13:49.665Z,3.10
2022-10-03T05:16:22.105Z,3.13
2022-10-03T05:18:58.104Z,3.33
2022-10-03T05:21:33.240Z,3.70
2022-10-03T05:24:15.678Z,2.80
2022-10-03T05:26:46.421Z,2.90
2022-10-03T05:29:16.220Z,3.10
2022-10-03T05:31:58.552Z,3.23
2022-10-03T05:34:44.502Z,3.50
2022-10-03T05:37:26.648Z,2.73
2022-10-03T05:40:01.930Z,3.23
2022-10-03T05:42:43.938Z,3.83
2022-10-03T05:45:24.500Z,3.27
2022-10-03T05:47:55.643Z,3.63
2022-10-03T05:50:28.602Z,3.13
2022-10-03T05:53:14.130Z,3.23
2022-10-03T05:55:43.989Z,3.70
2022-10-03T05:58:11.265Z,4.07
2022-10-03T06:00:38.413Z,3.77
2022-10-03T06:03:14.261Z,3.10
2022-10-03T06:05:50.156Z,3.00
2022-10-03T06:08:35.476Z,2.80
2022-10-03T06:11:32.316Z,3.30
2022-10-03T06:14:06.826Z,4.00
2022-10-03T06:16:39.780Z,3.67
2022-10-03T06:19:23.306Z,3.07
2022-10-03T06:22:08.523Z,2.83
2022-10-03T06:24:35.477Z,2.43
2022-10-03T06:27:20.846Z,2.97
2022-10-03T06:29:59.737Z,2.93
2022-10-03T06:32:46.230Z,3.13
2022-10-03T06:35:19.168Z,2.80
2022-10-03T06:37:49.239Z,3.17
2022-10-03T06:40:28.542Z,3.43
2022-10-03T06:42:55.459Z,3.83
2022-10-03T06:45:45.421Z,3.30
2022-10-03T06:48:29.690Z,3.03
2022-10-03T06:51:00.201Z,3.57
2022-10-03T06:53:37.945Z,2.93
2022-10-03T06:56:33.732Z,3.40
2022-10-03T06:59:20.291Z,2.50
2022-10-03T07:01:55.316Z,2.73
2022-10-03T07:04:25.162Z,3.37
2022-10-03T07:06:57.812Z,2.67
2022-10-03T07:09:33.608Z,2.60
2022-10-03T07:12:00.371Z,2.60
2022-10-03T07:14:50.485Z,2.30
2022-10-03T07:17:33.491Z,3.13
2022-10-03T07:20:17.602Z,2.73
2022-10-03T07:22:50.297Z,2.30
2022-10-03T07:25:23.335Z,2.27
2022-10-03T07:27:59.272Z,2.67
2022-10-03T07:30:29.632Z,2.43
2022-10-03T07:33:08.676Z,2.43
2022-10-03T07:35:53.897Z,2.80
2022-10-03T07:38:42.356Z,2.27
2022-10-03T07:41:13.119Z,2.60
2022-10-03T07:43:49.003Z,2.30
2022-10-03T07:46:36.144Z,2.07
2022-10-03T07:49:20.861Z,1.93
2022-10-03T07:52:08.544Z,3.37
2022-10-03T07:54:58.466Z,2.60
2022-10-03T07:57:38.196Z,2.23
2022-10-03T08:00:17.224Z,2.23
2022-10-03T08:02:44.467Z,2.00
2022-10-03T08:05:25.636Z,2.07
2022-10-03T08:08:17.255Z,1.70
2022-10-03T08:10:47.663Z,2.83
2022-10-03T08:13:34.017Z,2.00
2022-10-03T08:16:03.667Z,1.73
2022-10-03T08:18:56.960Z,2.57
2022-10-03T08:21:30.080Z,2.63
2022-10-03T08:24:15.060Z,2.87
2022-10-03T08:27:00.502Z,2.37
2022-10-03T08:29:41.872Z,1.90
2022-10-03T08:32:27.859Z,1.80
2022-10-03T08:35:06.908Z,1.70
2022-10-03T08:37:56.668Z,3.27
2022-10-03T08:40:37.864Z,2.40
2022-10-03T08:43:30.776Z,2.00
2022-10-03T08:46:03.585Z,1.60
2022-10-03T08:48:49.483Z,1.83
2022-10-03T08:51:31.433Z,1.83
2022-10-03T08:54:16.396Z,1.63
2022-10-03T08:56:44.205Z,1.73
2022-10-03T08:59:23.591Z,2.73
2022-10-03T09:02:02.643Z,1.73
2022-10-03T09:04:48.447Z,1.63
2022-10-03T09:07:27.774Z,2.30
2022-10-03T09:10:09.940Z,2.40
2022-10-03T09:12:50.857Z,1.93
2022-10-03T09:15:36.387Z,2.17
2022-10-03T09:18:05.740Z,2.70
2022-10-03T09:20:32.565Z,2.30
2022-10-03T09:23:28.845Z,2.50
2022-10-03T09:25:58.350Z,2.10
2022-10-03T09:28:34.253Z,1.80
2022-10-03T09:31:10.447Z,2.20
2022-10-03T09:33:39.407Z,1.93
2022-10-03T09:36:24.938Z,2.40
2022-10-03T09:38:57.630Z,2.10
2022-10-03T09:41:30.648Z,2.00
2022-10-03T09:44:12.826Z,1.70
2022-10-03T09:47:16.992Z,2.07
2022-10-03T09:50:03.922Z,1.70
2022-10-03T09:52:44.586Z,1.50
2022-10-03T09:55:36.784Z,1.60
2022-10-03T09:58:22.882Z,1.40
2022-10-03T10:00:54.094Z,1.60
2022-10-03T10:03:24.067Z,1.33
2022-10-03T10:05:50.985Z,1.47
2022-10-03T10:08:31.149Z,1.73
2022-10-03T10:10:58.151Z,1.43
2022-10-03T10:14:06.606Z,1.20
2022-10-03T10:16:38.511Z,1.73
2022-10-03T10:19:05.800Z,1.63
2022-10-03T10:21:35.444Z,1.47
2022-10-03T10:24:36.685Z,2.00
2022-10-03T10:27:22.674Z,1.40
2022-10-03T10:30:08.494Z,1.30
2022-10-03T10:32:53.794Z,1.17
2022-10-03T10:35:20.603Z,1.43
2022-10-03T10:37:47.364Z,1.77
2022-10-03T10:40:20.788Z,1.27
2022-10-03T10:43:02.733Z,1.57
2022-10-03T10:45:42.545Z,1.60
2022-10-03T10:48:30.875Z,1.13
2022-10-03T10:51:19.226Z,1.40
2022-10-03T10:54:05.138Z,1.53
2022-10-03T10:56:50.786Z,1.73
2022-10-03T10:59:36.419Z,2.73
2022-10-03T11:02:10.416Z,1.60
2022-10-03T11:04:57.629Z,1.73
2022-10-03T11:07:35.245Z,2.60
2022-10-03T11:10:21.058Z,1.93
2022-10-03T11:13:03.623Z,2.00
2022-10-03T11:15:37.284Z,1.70
2022-10-03T11:18:10.406Z,1.70
2022-10-03T11:20:40.762Z,1.77
2022-10-03T11:23:08.851Z,1.80
2022-10-03T11:25:56.400Z,1.30
2022-10-03T11:28:29.371Z,1.20
2022-10-03T11:31:15.668Z,1.30
2022-10-03T11:33:43.686Z,2.90
2022-10-03T11:36:11.289Z,1.83
2022-10-03T11:38:51.091Z,1.50
2022-10-03T11:41:21.262Z,1.43
2022-10-03T11:44:01.900Z,2.17
2022-10-03T11:46:42.794Z,2.00
2022-10-03T11:49:21.536Z,2.40
2022-10-03T11:51:54.273Z,2.60
2022-10-03T11:54:32.217Z,2.93
2022-10-03T11:57:26.324Z,2.50
2022-10-03T12:00:01.117Z,2.57
2022-10-03T12:02:51.922Z,2.50
2022-10-03T12:05:25.251Z,2.53
2022-10-03T12:08:30.551Z,3.40
2022-10-03T12:11:01.019Z,2.60
2022-10-03T12:13:44.580Z,3.50
2022-10-03T12:16:22.029Z,2.67
2022-10-03T12:18:49.692Z,2.60
2022-10-03T12:21:25.465Z,2.90
2022-10-03T12:24:16.554Z,3.17
2022-10-03T12:26:55.511Z,2.73
2022-10-03T12:29:25.321Z,2.70
2022-10-03T12:32:01.710Z,1.80
2022-10-03T12:34:29.200Z,2.00
2022-10-03T12:36:57.306Z,1.53
2022-10-03T12:39:45.178Z,1.50
2022-10-03T12:42:27.395Z,1.37
2022-10-03T12:45:00.075Z,1.57
2022-10-03T12:47:50.647Z,1.87
2022-10-03T12:50:25.688Z,2.37
2022-10-03T12:53:04.580Z,2.40
2022-10-03T12:55:36.026Z,3.00
2022-10-03T12:58:04.252Z,3.47
2022-10-03T13:03:24.410Z,3.10
2022-10-03T13:05:58.259Z,2.57
2022-10-03T13:08:59.887Z,3.10
2022-10-03T13:11:40.418Z,3.40
2022-10-03T13:14:10.439Z,3.70
2022-10-03T13:16:45.182Z,3.43
2022-10-03T13:19:17.434Z,2.67
2022-10-03T13:22:08.389Z,2.57
2022-10-03T13:24:46.464Z,3.13
2022-10-03T13:27:32.505Z,3.23
2022-10-03T13:30:29.156Z,2.63
2022-10-03T13:33:07.725Z,3.10
2022-10-03T13:35:55.464Z,3.67
2022-10-03T13:38:28.659Z,2.40
2022-10-03T13:41:14.610Z,2.53
2022-10-03T13:43:44.910Z,2.20
2022-10-03T13:46:22.412Z,2.70
2022-10-03T13:49:02.489Z,3.30
2022-10-03T13:51:32.189Z,3.10
2022-10-03T13:54:05.213Z,3.53
2022-10-03T13:56:38.100Z,3.50
2022-10-03T13:59:14.207Z,3.80
2022-10-03T14:01:46.072Z,3.27
2022-10-03T14:04:30.601Z,3.00
2022-10-03T14:07:09.030Z,3.07
2022-10-03T14:09:56.273Z,2.73
2022-10-03T14:12:54.878Z,2.87
2022-10-03T14:15:38.132Z,2.40
2022-10-03T14:18:10.297Z,1.77
2022-10-03T14:20:43.378Z,1.83
2022-10-03T14:23:12.962Z,1.73
2022-10-03T14:25:48.252Z,1.70
2022-10-03T14:28:36.255Z,2.03
2022-10-03T14:31:12.558Z,1.80
2022-10-03T14:34:04.660Z,1.77
2022-10-03T14:36:51.366Z,5.50
2022-10-03T14:39:38.360Z,2.87
2022-10-03T14:42:27.459Z,2.17
2022-10-03T14:44:58.024Z,4.77
2022-10-03T14:47:26.895Z,2.07
2022-10-03T14:49:59.409Z,2.30
2022-10-03T14:55:38.292Z,2.23
2022-10-03T14:58:13.574Z,4.67
2022-10-03T15:00:58.871Z,4.00
2022-10-03T15:03:33.941Z,2.47
2022-10-03T15:06:11.326Z,2.63
2022-10-03T15:08:40.231Z,2.80
2022-10-03T15:11:07.987Z,2.00
2022-10-03T15:13:38.677Z,2.60
2022-10-03T15:16:08.221Z,3.00
2022-10-03T15:18:36.539Z,5.50
2022-10-03T15:21:06.768Z,3.70
2022-10-03T15:23:45.380Z,2.90
2022-10-03T15:26:16.747Z,3.23
2022-10-03T15:28:49.025Z,3.83
2022-10-03T15:31:40.735Z,3.30
2022-10-03T15:34:18.112Z,5.20
2022-10-03T15:36:49.026Z,4.00
2022-10-03T15:39:21.884Z,3.77
2022-10-03T15:41:52.753Z,3.50
2022-10-03T15:44:24.458Z,3.17
2022-10-03T15:46:56.791Z,3.67
2022-10-03T15:49:24.558Z,3.23
2022-10-03T15:51:54.587Z,2.63
2022-10-03T15:54:23.715Z,2.57
2022-10-03T15:57:01.066Z,3.20
2022-10-03T15:59:34.187Z,2.93
2022-10-03T16:02:06.776Z,2.43
2022-10-03T16:04:34.671Z,3.50
2022-10-03T16:07:07.932Z,2.67
2022-10-03T16:09:53.618Z,3.10
2022-10-03T16:12:36.124Z,2.67
2022-10-03T16:15:10.437Z,2.90
2022-10-03T16:17:39.800Z,2.80
2022-10-03T16:20:15.114Z,2.70
2022-10-03T16:22:44.956Z,3.00
2022-10-03T16:25:41.648Z,2.83
2022-10-03T16:28:12.367Z,2.07
2022-10-03T16:30:42.681Z,2.63
2022-10-03T16:33:09.469Z,3.77
2022-10-03T16:35:36.240Z,2.77
2022-10-03T16:38:06.716Z,3.53
2022-10-03T16:40:34.590Z,3.03
2022-10-03T16:43:09.130Z,4.07
2022-10-03T16:45:41.603Z,3.60
2022-10-03T16:48:32.229Z,4.37
2022-10-03T16:50:59.605Z,5.03
2022-10-03T16:53:27.279Z,4.07
2022-10-03T16:56:00.084Z,8.77
2022-10-03T16:58:31.635Z,6.83
2022-10-03T17:01:26.312Z,4.23
2022-10-03T17:04:00.146Z,4.40
2022-10-03T17:06:31.512Z,4.23
2022-10-03T17:08:59.802Z,3.80
2022-10-03T17:11:27.648Z,4.10
2022-10-03T17:13:56.292Z,4.23
2022-10-03T17:16:39.621Z,3.77
2022-10-03T17:19:09.045Z,4.47
2022-10-03T17:21:38.491Z,3.53
2022-10-03T17:24:09.171Z,4.17
2022-10-03T17:26:41.936Z,3.10
2022-10-03T17:29:15.249Z,3.37
2022-10-03T17:32:00.429Z,2.70
2022-10-03T17:34:27.324Z,3.40
2022-10-03T17:36:55.272Z,2.43
2022-10-03T17:39:34.610Z,3.30
2022-10-03T17:42:09.257Z,3.20
2022-10-03T17:44:45.327Z,2.00
2022-10-03T17:47:24.719Z,2.30
2022-10-03T17:49:52.098Z,2.40
2022-10-03T17:52:20.699Z,2.30
2022-10-03T17:54:49.305Z,4.83
2022-10-03T17:57:21.129Z,4.30
2022-10-03T17:59:58.139Z,6.77
2022-10-03T18:02:46.136Z,4.40
2022-10-03T18:05:16.912Z,2.80
2022-10-03T18:07:44.746Z,2.63
2022-10-03T18:10:38.101Z,2.40
2022-10-03T18:13:14.739Z,2.97
2022-10-03T18:15:42.596Z,2.80
2022-10-03T18:18:29.936Z,2.37
2022-10-03T18:20:59.774Z,2.43
2022-10-03T18:23:55.142Z,2.57
2022-10-03T18:26:28.634Z,2.70
2022-10-03T18:28:56.136Z,2.47
2022-10-03T18:31:23.754Z,2.47
2022-10-03T18:34:01.662Z,2.40
2022-10-03T18:36:34.795Z,4.73
2022-10-03T18:39:06.493Z,6.90
2022-10-03T18:41:33.843Z,3.20
2022-10-03T18:44:01.344Z,2.70
2022-10-03T18:46:39.239Z,3.07
2022-10-03T18:49:31.945Z,3.20
2022-10-03T18:52:03.210Z,3.30
2022-10-03T18:54:42.879Z,3.33
2022-10-03T18:57:14.950Z,2.97
2022-10-03T18:59:45.759Z,2.83
2022-10-03T19:02:17.950Z,2.67
2022-10-03T19:04:49.525Z,3.37
2022-10-03T19:07:16.888Z,2.83
2022-10-03T19:10:07.141Z,2.80
2022-10-03T19:12:36.084Z,3.27
2022-10-03T19:15:05.698Z,3.07
2022-10-03T19:17:41.880Z,3.60
2022-10-03T19:20:27.085Z,2.93
2022-10-03T19:23:00.230Z,3.00
2022-10-03T19:25:27.607Z,4.03
2022-10-03T19:28:03.123Z,3.20
2022-10-03T19:30:31.161Z,3.30
2022-10-03T19:33:03.940Z,3.00
2022-10-03T19:35:31.153Z,2.57
2022-10-03T19:38:04.370Z,3.57
2022-10-03T19:40:39.674Z,2.93
2022-10-03T19:43:21.641Z,2.83
2022-10-03T19:46:07.475Z,3.03
2022-10-03T19:48:35.855Z,2.87
2022-10-03T19:51:10.240Z,3.47
2022-10-03T19:53:41.156Z,3.27
2022-10-03T19:56:13.807Z,3.20
2022-10-03T19:58:41.561Z,3.60
2022-10-03T20:01:09.949Z,3.30
2022-10-03T20:03:36.951Z,2.90
2022-10-03T20:06:07.775Z,3.47
2022-10-03T20:08:40.364Z,3.43
2022-10-03T20:11:16.103Z,5.50
2022-10-03T20:13:44.122Z,5.43
2022-10-03T20:16:14.579Z,4.73
2022-10-03T20:18:42.034Z,4.70
2022-10-03T20:21:12.850Z,3.50
2022-10-03T20:23:43.355Z,3.40
2022-10-03T20:26:31.310Z,3.87
2022-10-03T20:29:16.886Z,4.33
2022-10-03T20:31:44.287Z,3.67
2022-10-03T20:34:16.422Z,5.23
2022-10-03T20:36:46.770Z,4.30
2022-10-03T20:39:18.365Z,3.80
2022-10-03T20:41:54.616Z,3.50
2022-10-03T20:44:41.088Z,4.60
2022-10-03T20:47:15.641Z,5.27
2022-10-03T20:49:48.448Z,4.60
2022-10-03T20:52:22.104Z,4.27
2022-10-03T20:54:50.800Z,4.20
2022-10-03T20:57:36.155Z,3.73
2022-10-03T21:00:29.145Z,3.63
2022-10-03T21:03:14.066Z,3.97
2022-10-03T21:05:51.531Z,3.13
2022-10-03T21:08:21.165Z,4.30
2022-10-03T21:10:51.036Z,3.63
2022-10-03T21:13:36.223Z,3.60
2022-10-03T21:16:04.927Z,4.07
2022-10-03T21:18:37.145Z,4.27
2022-10-03T21:21:12.906Z,4.20
2022-10-03T21:23:45.947Z,4.10
2022-10-03T21:26:13.274Z,3.73
2022-10-03T21:28:40.084Z,3.17
2022-10-03T21:31:06.955Z,4.73
2022-10-03T21:33:55.828Z,3.63
2022-10-03T21:36:26.662Z,3.70
2022-10-03T21:38:58.412Z,3.47
2022-10-03T21:41:37.706Z,3.70
2022-10-03T21:44:05.863Z,3.70
2022-10-03T21:46:32.633Z,4.00
2022-10-03T21:49:07.389Z,4.00
2022-10-03T21:51:40.306Z,3.37
2022-10-03T21:54:27.669Z,3.60
2022-10-03T21:57:18.849Z,3.57
2022-10-03T21:59:51.764Z,4.30
2022-10-03T22:02:30.589Z,5.07
2022-10-03T22:05:16.193Z,3.67
2022-10-03T22:07:43.844Z,3.67
2022-10-03T22:10:21.115Z,3.67
2022-10-03T22:12:52.964Z,2.93
2022-10-03T22:15:19.719Z,3.13
2022-10-03T22:17:46.517Z,2.80
2022-10-03T22:20:20.155Z,2.63
2022-10-03T22:23:05.191Z,2.80
2022-10-03T22:25:31.951Z,2.57
2022-10-03T22:28:10.994Z,3.03
2022-10-03T22:30:41.486Z,2.73
2022-10-03T22:33:11.500Z,3.30
2022-10-03T22:35:41.397Z,3.20
2022-10-03T22:38:08.388Z,3.13
2022-10-03T22:40:36.339Z,3.53
2022-10-03T22:43:04.648Z,3.00
2022-10-03T22:45:33.238Z,3.40
2022-10-03T22:48:04.684Z,2.63
2022-10-03T22:50:33.127Z,2.53
2022-10-03T22:53:01.148Z,3.37
2022-10-03T22:55:28.426Z,2.83
2022-10-03T22:57:55.834Z,3.10
2022-10-03T23:00:26.485Z,2.50
2022-10-03T23:03:04.355Z,2.80
2022-10-03T23:05:41.399Z,2.50
2022-10-03T23:08:18.660Z,2.33
2022-10-03T23:10:46.842Z,2.60
2022-10-03T23:13:18.295Z,3.03
2022-10-03T23:15:47.685Z,2.70
2022-10-03T23:18:33.518Z,2.30
2022-10-03T23:21:03.350Z,2.30
2022-10-03T23:23:48.768Z,2.70
2022-10-03T23:26:18.446Z,2.60
2022-10-03T23:28:53.655Z,2.40
2022-10-03T23:31:40.640Z,2.60
2022-10-03T23:34:09.123Z,2.20
2022-10-03T23:36:55.840Z,2.77
2022-10-03T23:39:33.102Z,2.87
2022-10-03T23:42:03.249Z,2.57
2022-10-03T23:44:34.547Z,2.67
2022-10-03T23:47:01.982Z,3.10
2022-10-03T23:49:29.560Z,3.13
2022-10-03T23:51:57.259Z,2.60
2022-10-03T23:54:24.466Z,2.57
2022-10-03T23:56:51.588Z,2.60
2022-10-03T23:59:22.533Z,2.93
